Aeroporto :
LOGIN :

Iscrizione | Disclaimer

   EN    FR    IT 

 










Sommario :    VFR   VFR Marginale   IFR   IFR Intensivo   IFR Molto Intensivo
Visibilità : 
Base nubi : 
>= 8 km
>= 3000ft
5 / 8 km
1000 / 3000 ft
1500m / 5 km
500 / 1000 ft
800 / 1500m
200 / 500 ft
< 800m
< 200 ft
Simboli :   Temporali  Nebbia  Neve Forte  Precipitazioni Forti  Vento > 20 kt
SIGMETs :   Varie  Temporali  Ghiacco  Turbolenza  Onda orograficha  Ceneri Vulcaniche







- Altitudine del aeroporto : 751 ft
- Codice IATA : ENC
- Carte del aeroporto


LFSN - Nancy Essey

ULTIMO METAR :
  • 212230Z AUTO 02005KT CAVOK M01/M05 Q1018

METARs OBSOLETI :
  • 212200Z AUTO 03004KT 9999 NSC M01/M05 Q1019
  • 212130Z AUTO 04005KT CAVOK M01/M06 Q1019
  • 212100Z AUTO 04004KT CAVOK M01/M05 Q1019
  • 212030Z AUTO 04005KT CAVOK M01/M06 Q1019
  • 212000Z AUTO VRB01KT CAVOK M00/M06 Q1019

Previsioni scadute.
Nessun NOTAM noto per questo aeroporto.
1 SIGMET conosciuto per la FIR Reims (LFEE) :
 
Turbolenza severa
LFEE SIGMET 1 VALID 220200/220600 LFPW
LFEE REIMS FIR/UIR SEV TURB FCST WI N4630 E00515 - N4630 E00445 - N4730 E00415 - N4830 E00530 - N4900 E00445 - N4930 E00600 - N4915 E00700 - N4630 E00515 FL170/250 STNR NC=



MetMap, La meteo Aeronautica in un colpo d'occhio ! - Copyright ORBIFLY Dicembre 2007 - Disclaimer

ORBIFLY MET'MAP TEAM :

Programmazione e sviluppo : Alexandra Zaïnal
Concezione e sviluppo : Baudouin d'Aumeries
Co-Programmazione e sviluppo : Marc-Olivier Méhu
Supporto tecnico e logistico : Manuel Goepfert
Aiuto per la traduzione : Arnaldo La Scala

Contatto : metmap@orbifly.com




FONTI E CREDITI :

   NOAA